Time;durP1;ratioP1;P1;durP2;ratioP2;P2;SDS_P1;SDS_P2;PMS_P1;PMS_P2;Temp;Humidity;BMP_temperature;BMP_pressure;BME280_temperature;BME280_humidity;BME280_pressure;Samples;Min_cycle;Max_cycle;Signal;HPM_P1;HPM_P2
2023/02/03 00:00:41;;;;;;;121.35;8.93;;;;;;;6.88;100.00;98842.34;4901904;29;20082;-54
2023/02/03 00:03:06;;;;;;;95.68;6.82;;;;;;;7.46;100.00;98853.19;4898554;29;20055;-54
2023/02/03 00:05:33;;;;;;;116.93;7.97;;;;;;;7.63;100.00;98851.88;4897909;29;20046;-54
2023/02/03 00:07:59;;;;;;;99.30;5.38;;;;;;;6.85;100.00;98847.44;4902144;29;20020;-56
2023/02/03 00:10:24;;;;;;;118.47;8.43;;;;;;;7.06;100.00;98854.00;4901071;29;20553;-56
2023/02/03 00:12:55;;;;;;;157.70;9.77;;;;;;;7.21;100.00;98850.91;4901980;29;20028;-56
2023/02/03 00:15:22;;;;;;;113.45;8.80;;;;;;;7.97;100.00;98850.84;4902136;29;20568;-55
2023/02/03 00:17:47;;;;;;;180.68;10.35;;;;;;;7.34;100.00;98846.88;4903622;29;20020;-55
2023/02/03 00:20:12;;;;;;;130.38;9.13;;;;;;;8.58;100.00;98847.75;4904600;29;20031;-55
2023/02/03 00:22:38;;;;;;;182.45;12.70;;;;;;;8.33;100.00;98844.66;4903672;29;20047;-55
2023/02/03 00:25:04;;;;;;;150.10;9.50;;;;;;;7.52;100.00;98845.56;4901091;29;20036;-55
2023/02/03 00:27:30;;;;;;;295.13;16.52;;;;;;;7.99;100.00;98844.84;4902977;29;20380;-54
2023/02/03 00:29:55;;;;;;;212.77;13.38;;;;;;;8.82;100.00;98849.91;4901389;29;20032;-56
2023/02/03 00:32:21;;;;;;;130.52;9.90;;;;;;;8.75;100.00;98847.19;4901051;29;20092;-54
2023/02/03 00:34:46;;;;;;;105.25;9.60;;;;;;;7.96;100.00;98847.38;4900967;29;20024;-55
2023/02/03 00:37:12;;;;;;;199.98;12.77;;;;;;;8.05;100.00;98844.97;4902799;29;20193;-55
2023/02/03 00:39:37;;;;;;;233.20;13.32;;;;;;;8.28;100.00;98838.50;4902819;29;20032;-55
2023/02/03 00:42:04;;;;;;;170.52;10.35;;;;;;;8.85;100.00;98841.31;4903499;29;20043;-56
2023/02/03 00:44:29;;;;;;;266.50;14.50;;;;;;;8.72;100.00;98845.38;4901742;29;20486;-55
2023/02/03 00:46:55;;;;;;;205.32;13.40;;;;;;;9.03;100.00;98842.47;4902422;29;20036;-55
2023/02/03 00:49:20;;;;;;;190.27;11.65;;;;;;;8.17;100.00;98846.94;4902893;29;20038;-54
2023/02/03 00:51:45;;;;;;;175.32;10.80;;;;;;;9.10;100.00;98833.94;4901357;29;20498;-54
2023/02/03 00:54:12;;;;;;;222.50;14.02;;;;;;;7.85;100.00;98834.19;4904521;29;20028;-54
2023/02/03 00:56:38;;;;;;;216.18;11.93;;;;;;;8.17;100.00;98827.94;4902070;29;20036;-54
2023/02/03 00:59:03;;;;;;;219.57;14.02;;;;;;;8.65;100.00;98830.59;4902215;29;20024;-54
2023/02/03 01:01:28;;;;;;;129.90;9.15;;;;;;;8.33;100.00;98836.88;4902653;29;20550;-56
2023/02/03 01:03:55;;;;;;;143.05;7.90;;;;;;;7.78;100.00;98837.50;4901893;29;20079;-55
2023/02/03 01:06:20;;;;;;;126.25;11.48;;;;;;;8.55;100.00;98842.50;4902688;29;20036;-55
2023/02/03 01:08:46;;;;;;;164.48;11.82;;;;;;;7.69;100.00;98835.59;4902233;29;20036;-54
2023/02/03 01:11:20;;;;;;;121.70;9.57;;;;;;;8.29;100.00;98840.25;4899180;29;20039;-54
2023/02/03 01:13:46;;;;;;;124.53;10.63;;;;;;;8.13;100.00;98844.25;4903716;29;20123;-54
2023/02/03 01:16:14;;;;;;;124.50;10.77;;;;;;;7.61;100.00;98843.16;4903262;29;20058;-54
2023/02/03 01:18:40;;;;;;;115.53;9.30;;;;;;;7.36;100.00;98839.16;4904401;29;20032;-56
2023/02/03 01:21:11;;;;;;;163.70;12.65;;;;;;;7.36;100.00;98845.22;4901242;29;20354;-55
2023/02/03 01:23:37;;;;;;;108.80;9.18;;;;;;;7.60;100.00;98841.44;4903665;29;20039;-54
2023/02/03 01:26:05;;;;;;;151.10;10.98;;;;;;;7.86;100.00;98846.31;4902613;29;20068;-57
2023/02/03 01:28:31;;;;;;;110.50;9.63;;;;;;;7.93;100.00;98840.41;4904051;29;20039;-56
2023/02/03 01:30:56;;;;;;;155.70;10.45;;;;;;;8.13;100.00;98837.34;4902098;29;20040;-55
2023/02/03 01:33:22;;;;;;;145.50;10.27;;;;;;;7.95;100.00;98846.50;4902774;29;20042;-55
2023/02/03 01:35:47;;;;;;;104.32;8.98;;;;;;;9.20;100.00;98835.81;4902358;29;20704;-55
2023/02/03 01:38:12;;;;;;;153.88;9.93;;;;;;;8.39;100.00;98831.78;4902090;29;20032;-54
2023/02/03 01:40:42;;;;;;;116.43;10.82;;;;;;;7.78;100.00;98827.13;4902059;29;20051;-54
2023/02/03 01:43:09;;;;;;;112.35;8.68;;;;;;;8.44;100.00;98829.31;4901364;29;20024;-57
2023/02/03 01:45:34;;;;;;;159.35;11.95;;;;;;;8.39;100.00;98831.78;4901839;29;20039;-55
2023/02/03 01:48:00;;;;;;;123.78;11.30;;;;;;;8.26;100.00;98832.41;4901925;29;20024;-55
2023/02/03 01:50:35;;;;;;;155.65;10.80;;;;;;;8.31;100.00;98818.69;4902921;29;20379;-55
2023/02/03 01:53:04;;;;;;;95.80;6.63;;;;;;;9.04;100.00;98810.47;4906596;29;20528;-56
2023/02/03 01:55:40;;;;;;;137.27;8.23;;;;;;;8.89;100.00;98814.56;4905576;29;20769;-55
2023/02/03 01:58:20;;;;;;;108.75;8.70;;;;;;;8.97;100.00;98800.00;4906173;29;20031;-55
2023/02/03 02:00:48;;;;;;;126.97;5.97;;;;;;;9.32;100.00;98784.94;4905035;29;20067;-57
2023/02/03 02:03:14;;;;;;;126.32;10.32;;;;;;;9.52;100.00;98785.22;4902495;29;20079;-55
2023/02/03 02:05:52;;;;;;;148.98;13.90;;;;;;;9.59;100.00;98774.09;4906168;29;20044;-54
2023/02/03 02:08:21;;;;;;;127.50;11.82;;;;;;;10.01;100.00;98774.59;4906582;29;20042;-55
2023/02/03 02:10:47;;;;;;;159.38;9.60;;;;;;;-148.24;100.00;61531.34;4904002;29;20122;-57
2023/02/03 02:13:16;;;;;;;122.25;9.73;;;;;;;-148.24;100.00;61531.34;4903536;29;20020;-55
2023/02/03 02:16:15;;;;;;;85.32;8.02;;;;;;;-148.24;100.00;61531.34;4906295;29;20050;-56
2023/02/03 02:18:41;;;;;;;101.20;7.88;;;;;;;-148.24;100.00;61531.34;4907604;29;20504;-56
2023/02/03 02:21:18;;;;;;;142.43;11.55;;;;;;;-148.24;100.00;61531.34;4905934;29;20054;-55
2023/02/03 02:24:05;;;;;;;130.07;12.18;;;;;;;-148.24;100.00;61531.34;4907197;29;20025;-56
2023/02/03 02:27:02;;;;;;;137.10;11.65;;;;;;;-148.24;100.00;61531.34;4904453;29;20090;-56
2023/02/03 02:29:52;;;;;;;122.53;10.27;;;;;;;-148.24;100.00;61531.34;4890079;29;20048;-56
2023/02/03 02:32:28;;;;;;;137.68;9.43;;;;;;;-148.24;100.00;61531.34;4904438;29;20103;-56
2023/02/03 02:35:00;;;;;;;131.60;12.55;;;;;;;-148.24;100.00;61531.34;4905309;29;20038;-56
2023/02/03 02:37:44;;;;;;;156.25;11.52;;;;;;;-148.24;100.00;61531.34;4903064;29;20040;-56
2023/02/03 02:40:22;;;;;;;144.48;14.05;;;;;;;-148.24;100.00;61531.34;4903597;29;21117;-57
2023/02/03 02:42:51;;;;;;;126.40;10.85;;;;;;;-148.24;100.00;61531.34;4906314;29;20040;-55
2023/02/03 02:45:35;;;;;;;139.07;12.15;;;;;;;-148.24;100.00;61531.34;4904367;29;20462;-56
2023/02/03 02:48:14;;;;;;;127.28;8.43;;;;;;;-148.24;100.00;61531.34;4903711;29;20071;-57
2023/02/03 02:50:45;;;;;;;144.68;9.20;;;;;;;-148.24;100.00;61531.34;4902936;29;20032;-55
2023/02/03 02:53:13;;;;;;;105.22;10.43;;;;;;;-148.24;100.00;61531.34;4905682;29;20168;-57
2023/02/03 02:55:42;;;;;;;150.35;10.98;;;;;;;-148.24;100.00;61531.34;4901780;29;20142;-56
2023/02/03 02:58:12;;;;;;;107.57;10.27;;;;;;;-148.24;100.00;61531.34;4904160;29;20260;-55
2023/02/03 03:00:40;;;;;;;161.02;10.77;;;;;;;-148.24;100.00;61531.34;4902610;29;20063;-56
2023/02/03 03:03:14;;;;;;;134.65;10.82;;;;;;;-148.24;100.00;61531.34;4901580;29;20038;-55
2023/02/03 03:05:43;;;;;;;147.45;9.82;;;;;;;-148.24;100.00;61531.34;4905841;29;20075;-56
2023/02/03 03:08:11;;;;;;;121.85;9.65;;;;;;;-148.24;100.00;61531.34;4905484;29;20398;-55
2023/02/03 03:10:41;;;;;;;132.75;10.18;;;;;;;-148.24;100.00;61531.34;4904485;29;20039;-55
2023/02/03 03:13:11;;;;;;;116.63;8.77;;;;;;;-148.24;100.00;61531.34;4904266;29;20483;-54
2023/02/03 03:15:39;;;;;;;131.02;9.57;;;;;;;-148.24;100.00;61531.34;4903149;29;20699;-54
2023/02/03 03:18:18;;;;;;;165.07;11.30;;;;;;;-148.24;100.00;61531.34;4902929;29;20024;-56
2023/02/03 03:20:46;;;;;;;144.60;10.27;;;;;;;-148.24;100.00;61531.34;4903457;29;20068;-55
2023/02/03 03:23:29;;;;;;;144.32;11.07;;;;;;;-148.24;100.00;61531.34;4905396;29;20355;-54
2023/02/03 03:26:02;;;;;;;123.40;7.50;;;;;;;-148.24;100.00;61531.34;4903281;29;20047;-54
2023/02/03 03:28:37;;;;;;;125.53;9.27;;;;;;;-148.24;100.00;61531.34;4903286;29;20087;-55
2023/02/03 03:31:03;;;;;;;147.90;9.82;;;;;;;-148.24;100.00;61531.34;4902981;29;20797;-55
2023/02/03 03:33:28;;;;;;;123.05;7.35;;;;;;;-148.24;100.00;61531.34;4904734;29;20104;-56
2023/02/03 03:36:02;;;;;;;94.38;5.97;;;;;;;-148.24;100.00;61531.34;4902694;29;21204;-55
2023/02/03 03:38:53;;;;;;;154.75;11.77;;;;;;;-148.24;100.00;61531.34;4904380;29;20111;-54
2023/02/03 03:41:27;;;;;;;166.55;9.55;;;;;;;-148.24;100.00;61531.34;4904567;29;20485;-55
2023/02/03 03:43:57;;;;;;;122.43;8.75;;;;;;;-148.24;100.00;61531.34;4904196;29;20130;-58
2023/02/03 03:46:34;;;;;;;145.75;7.18;;;;;;;-148.24;100.00;61531.34;4902685;29;20828;-54
2023/02/03 03:49:03;;;;;;;147.88;10.20;;;;;;;-148.24;100.00;61531.34;4903612;29;20032;-56
2023/02/03 03:51:42;;;;;;;141.38;9.88;;;;;;;-148.24;100.00;61531.34;4902339;29;20127;-55
2023/02/03 03:54:12;;;;;;;131.48;8.55;;;;;;;-148.24;100.00;61531.34;4905088;29;20494;-57
2023/02/03 03:56:46;;;;;;;112.88;7.53;;;;;;;-148.24;100.00;61531.34;4902487;29;20498;-55
2023/02/03 03:59:17;;;;;;;131.65;8.93;;;;;;;-148.24;100.00;61531.34;4903170;29;20569;-56
2023/02/03 04:01:43;;;;;;;181.00;8.68;;;;;;;-148.24;100.00;61531.34;4902110;29;20032;-56
2023/02/03 04:04:10;;;;;;;124.97;8.20;;;;;;;-148.24;100.00;61531.34;4903709;29;20821;-56
2023/02/03 04:06:38;;;;;;;107.88;8.00;;;;;;;-148.24;100.00;61531.34;4902130;29;20052;-56
2023/02/03 04:09:04;;;;;;;131.35;9.77;;;;;;;-148.24;100.00;61531.34;4903445;29;21057;-56
2023/02/03 04:14:13;;;;;;;125.38;7.80;;;;;;;-148.24;100.00;61531.34;4903006;29;20039;-55
2023/02/03 04:16:39;;;;;;;129.98;8.68;;;;;;;-148.24;100.00;61531.34;4901755;29;20044;-56
2023/02/03 04:19:04;;;;;;;151.60;10.32;;;;;;;-148.24;100.00;61531.34;4905198;29;20035;-55
2023/02/03 04:21:29;;;;;;;112.68;6.82;;;;;;;-148.24;100.00;61531.34;4902337;29;20036;-55
2023/02/03 04:23:55;;;;;;;120.07;8.65;;;;;;;-148.24;100.00;61531.34;4904066;29;20051;-55
2023/02/03 04:26:21;;;;;;;135.18;8.85;;;;;;;-148.24;100.00;61531.34;4903875;29;20067;-54
2023/02/03 04:28:46;;;;;;;121.38;7.95;;;;;;;-148.24;100.00;61531.34;4902418;29;20124;-54
2023/02/03 04:31:12;;;;;;;165.00;7.57;;;;;;;-148.24;100.00;61531.34;4903504;29;20234;-55
2023/02/03 04:33:37;;;;;;;129.57;8.70;;;;;;;-148.24;100.00;61531.34;4901963;29;20127;-54
2023/02/03 04:36:03;;;;;;;115.97;8.07;;;;;;;-148.24;100.00;61531.34;4901307;29;20151;-55
2023/02/03 04:38:28;;;;;;;154.70;8.60;;;;;;;-148.24;100.00;61531.34;4901841;29;20133;-56
2023/02/03 04:40:54;;;;;;;114.75;9.20;;;;;;;-148.24;100.00;61531.34;4903730;29;20032;-56
2023/02/03 04:43:19;;;;;;;135.48;8.95;;;;;;;-148.24;100.00;61531.34;4903515;29;20050;-56
2023/02/03 04:45:44;;;;;;;114.15;8.02;;;;;;;-148.24;100.00;61531.34;4902329;29;20039;-54
2023/02/03 04:48:10;;;;;;;113.07;8.75;;;;;;;-148.24;100.00;61531.34;4903192;29;20778;-54
2023/02/03 04:50:35;;;;;;;173.80;9.32;;;;;;;-148.24;100.00;61531.34;4901465;29;20032;-55
2023/02/03 04:53:00;;;;;;;113.93;8.02;;;;;;;-148.24;100.00;61531.34;4902378;29;20032;-55
2023/02/03 04:55:27;;;;;;;113.13;6.70;;;;;;;-148.24;100.00;61531.34;4900376;29;20066;-55
2023/02/03 04:57:56;;;;;;;132.00;9.10;;;;;;;-148.24;100.00;61531.34;4903343;29;20126;-56
2023/02/03 05:00:21;;;;;;;104.82;5.85;;;;;;;-148.24;100.00;61531.34;4902041;29;20028;-57
2023/02/03 05:02:46;;;;;;;198.27;12.13;;;;;;;-148.24;100.00;61531.34;4904946;29;20040;-57
2023/02/03 05:05:12;;;;;;;139.48;10.27;;;;;;;-148.24;100.00;61531.34;4906953;29;20521;-56
2023/02/03 05:07:37;;;;;;;126.47;9.32;;;;;;;-148.24;100.00;61531.34;4901620;29;20493;-56
2023/02/03 05:10:03;;;;;;;150.82;9.32;;;;;;;-148.24;100.00;61531.34;4901846;29;20036;-56
2023/02/03 05:12:29;;;;;;;124.93;9.88;;;;;;;-148.24;100.00;61531.34;4902678;29;20739;-55
2023/02/03 05:14:55;;;;;;;142.32;8.23;;;;;;;-148.24;100.00;61531.34;4901998;29;20028;-57
2023/02/03 05:17:20;;;;;;;145.30;8.38;;;;;;;-148.24;100.00;61531.34;4904027;29;20068;-56
2023/02/03 05:19:45;;;;;;;150.57;10.65;;;;;;;-148.24;100.00;61531.34;4903684;29;20020;-55
2023/02/03 05:22:11;;;;;;;187.65;9.35;;;;;;;-148.24;100.00;61531.34;4900871;29;20119;-55
2023/02/03 05:24:36;;;;;;;139.35;9.85;;;;;;;-148.24;100.00;61531.34;4903675;29;20031;-56
2023/02/03 05:27:01;;;;;;;128.90;9.25;;;;;;;-148.24;100.00;61531.34;4901554;29;20061;-56
2023/02/03 05:29:27;;;;;;;121.28;9.00;;;;;;;-148.24;100.00;61531.34;4902033;29;20032;-56
2023/02/03 05:31:52;;;;;;;122.63;7.50;;;;;;;-148.24;100.00;61531.34;4900599;29;20172;-56
2023/02/03 05:34:17;;;;;;;149.95;8.73;;;;;;;-148.24;100.00;61531.34;4900837;29;20139;-57
2023/02/03 05:36:43;;;;;;;127.75;6.60;;;;;;;-148.24;100.00;61531.34;4901609;29;20060;-56
2023/02/03 05:39:08;;;;;;;124.82;5.53;;;;;;;-148.24;100.00;61531.34;4903555;29;20132;-55
2023/02/03 05:41:52;;;;;;;157.30;9.15;;;;;;;-148.24;100.00;61531.34;4900737;29;20858;-56
2023/02/03 05:44:19;;;;;;;114.05;6.68;;;;;;;-148.24;100.00;61531.34;4902349;29;20036;-57
2023/02/03 05:46:45;;;;;;;146.27;8.10;;;;;;;-148.24;100.00;61531.34;4898704;29;20048;-58
2023/02/03 05:49:10;;;;;;;133.95;9.13;;;;;;;-148.24;100.00;61531.34;4898377;29;20383;-55
2023/02/03 05:51:37;;;;;;;147.25;7.32;;;;;;;-148.24;100.00;61531.34;4901193;29;20042;-54
2023/02/03 05:54:02;;;;;;;105.15;7.82;;;;;;;-148.24;100.00;61531.34;4900570;29;20616;-54
2023/02/03 05:56:27;;;;;;;112.22;6.65;;;;;;;-148.24;100.00;61531.34;4901901;29;20047;-54
2023/02/03 05:58:53;;;;;;;148.90;6.90;;;;;;;-148.24;100.00;61531.34;4900275;29;20662;-56
2023/02/03 06:01:18;;;;;;;127.55;8.45;;;;;;;-148.24;100.00;61531.34;4900027;29;20052;-56
2023/02/03 06:03:44;;;;;;;152.65;6.70;;;;;;;-148.24;100.00;61531.34;4901298;29;20036;-56
2023/02/03 06:06:10;;;;;;;128.85;6.60;;;;;;;-148.24;100.00;61531.34;4902384;29;20055;-56
2023/02/03 06:08:35;;;;;;;107.85;5.95;;;;;;;-148.24;100.00;61531.34;4901931;29;20036;-57
2023/02/03 06:11:00;;;;;;;171.32;9.95;;;;;;;-148.24;100.00;61531.34;4900835;29;20047;-57
2023/02/03 06:13:26;;;;;;;127.57;7.82;;;;;;;-148.24;100.00;61531.34;4899924;29;20184;-58
2023/02/03 06:15:52;;;;;;;109.50;5.53;;;;;;;-148.24;100.00;61531.34;4899651;29;20114;-58
2023/02/03 06:18:18;;;;;;;149.15;8.65;;;;;;;-148.24;100.00;61531.34;4901410;29;20048;-55
2023/02/03 06:20:43;;;;;;;140.50;8.10;;;;;;;-148.24;100.00;61531.34;4901827;29;20536;-57
2023/02/03 06:23:08;;;;;;;224.05;10.02;;;;;;;-148.24;100.00;61531.34;4900022;29;20031;-56
2023/02/03 06:25:34;;;;;;;128.13;6.97;;;;;;;-148.24;100.00;61531.34;4900291;29;20047;-56
2023/02/03 06:27:59;;;;;;;108.35;6.47;;;;;;;-148.24;100.00;61531.34;4902717;29;20032;-56
2023/02/03 06:30:25;;;;;;;134.82;6.30;;;;;;;-148.24;100.00;61531.34;4902531;29;20045;-57
2023/02/03 06:32:50;;;;;;;129.13;6.70;;;;;;;-148.24;100.00;61531.34;4902174;29;20024;-56
2023/02/03 06:35:17;;;;;;;157.15;7.70;;;;;;;-148.24;100.00;61531.34;4902956;29;20107;-56
2023/02/03 06:37:42;;;;;;;127.53;7.30;;;;;;;-148.24;100.00;61531.34;4902472;29;20032;-55
2023/02/03 06:40:09;;;;;;;108.25;5.55;;;;;;;-148.24;100.00;61531.34;4904768;29;20035;-56
2023/02/03 06:42:35;;;;;;;163.90;8.40;;;;;;;-148.24;100.00;61531.34;4903712;29;20036;-56
2023/02/03 06:45:00;;;;;;;124.68;6.85;;;;;;;-148.24;100.00;61531.34;4905297;29;20035;-56
2023/02/03 06:47:26;;;;;;;136.02;6.20;;;;;;;-148.24;100.00;61531.34;4904504;29;20514;-56
2023/02/03 06:49:51;;;;;;;170.90;8.50;;;;;;;-148.24;100.00;61531.34;4901977;29;20044;-56
2023/02/03 06:52:17;;;;;;;135.27;6.85;;;;;;;-148.24;100.00;61531.34;4905710;29;20040;-56
2023/02/03 06:54:42;;;;;;;180.45;9.15;;;;;;;-148.24;100.00;61531.34;4904743;29;20538;-56
2023/02/03 06:57:08;;;;;;;137.68;8.00;;;;;;;-148.24;100.00;61531.34;4903444;29;20036;-58
2023/02/03 06:59:33;;;;;;;129.43;7.88;;;;;;;-148.24;100.00;61531.34;4902968;29;20024;-57
2023/02/03 07:01:58;;;;;;;160.18;8.77;;;;;;;-148.24;100.00;61531.34;4900162;29;20052;-56
2023/02/03 07:04:27;;;;;;;118.15;6.15;;;;;;;-148.24;100.00;61531.34;4903604;29;20032;-55
2023/02/03 07:06:52;;;;;;;167.55;6.28;;;;;;;-148.24;100.00;61531.34;4903151;29;20036;-55
2023/02/03 07:09:18;;;;;;;130.75;5.57;;;;;;;-148.24;100.00;61531.34;4901522;29;20090;-55
2023/02/03 07:11:43;;;;;;;113.55;5.18;;;;;;;-148.24;100.00;61531.34;4902203;29;20033;-54
2023/02/03 07:14:08;;;;;;;141.63;6.47;;;;;;;-148.24;100.00;61531.34;4907142;29;20036;-57
2023/02/03 07:16:36;;;;;;;112.82;6.03;;;;;;;-148.24;100.00;61531.34;4903418;29;20084;-55
2023/02/03 07:19:02;;;;;;;148.45;7.82;;;;;;;-148.24;100.00;61531.34;4903634;29;20023;-55
2023/02/03 07:21:27;;;;;;;113.38;5.13;;;;;;;-148.24;100.00;61531.34;4906371;29;20035;-57
2023/02/03 07:23:52;;;;;;;116.07;6.72;;;;;;;-148.24;100.00;61531.34;4906114;29;20024;-55
2023/02/03 07:26:18;;;;;;;143.02;6.38;;;;;;;-148.24;100.00;61531.34;4904224;29;20044;-56
2023/02/03 07:28:44;;;;;;;128.90;6.97;;;;;;;-148.24;100.00;61531.34;4903978;29;20048;-54
2023/02/03 07:31:09;;;;;;;115.75;6.25;;;;;;;-148.24;100.00;61531.34;4902750;29;20064;-56
2023/02/03 07:33:38;;;;;;;145.57;7.75;;;;;;;-148.24;100.00;61531.34;4904294;29;20394;-56
2023/02/03 07:36:04;;;;;;;122.75;5.60;;;;;;;-148.24;100.00;61531.34;4905166;29;20127;-57
2023/02/03 07:38:30;;;;;;;166.65;7.82;;;;;;;-148.24;100.00;61531.34;4907298;29;20581;-55
2023/02/03 07:40:56;;;;;;;127.35;8.02;;;;;;;-148.24;100.00;61531.34;4903936;29;20529;-54
2023/02/03 07:43:21;;;;;;;130.15;8.98;;;;;;;-148.24;100.00;61531.34;4907101;29;20604;-55
2023/02/03 07:45:47;;;;;;;110.35;5.13;;;;;;;-148.24;100.00;61531.34;4904713;29;20078;-56
2023/02/03 07:48:12;;;;;;;118.38;7.70;;;;;;;-148.24;100.00;61531.34;4904717;29;20028;-56
2023/02/03 07:50:38;;;;;;;152.60;7.28;;;;;;;-148.24;100.00;61531.34;4903972;29;21852;-55
2023/02/03 07:53:04;;;;;;;116.43;6.38;;;;;;;-148.24;100.00;61531.34;4902536;29;20023;-56
2023/02/03 07:55:29;;;;;;;129.52;6.60;;;;;;;-148.24;100.00;61531.34;4903302;29;20047;-55
2023/02/03 07:57:56;;;;;;;144.73;7.88;;;;;;;-148.24;100.00;61531.34;4904551;29;20122;-55
2023/02/03 08:00:23;;;;;;;115.07;7.00;;;;;;;-148.24;100.00;61531.34;4903081;29;20070;-55
2023/02/03 08:02:49;;;;;;;152.60;8.55;;;;;;;-148.24;100.00;61531.34;4903930;29;20044;-55
2023/02/03 08:05:15;;;;;;;120.93;6.88;;;;;;;-148.24;100.00;61531.34;4903323;29;20091;-57
2023/02/03 08:07:41;;;;;;;157.32;9.18;;;;;;;-148.24;100.00;61531.34;4904938;29;20027;-55
2023/02/03 08:10:09;;;;;;;175.48;10.35;;;;;;;-148.24;100.00;61531.34;4903559;29;20483;-55
2023/02/03 08:12:35;;;;;;;126.03;6.95;;;;;;;-148.24;100.00;61531.34;4905947;29;20051;-57
2023/02/03 08:15:00;;;;;;;166.73;8.55;;;;;;;-148.24;100.00;61531.34;4904959;29;20032;-57
2023/02/03 08:17:26;;;;;;;117.18;7.18;;;;;;;-148.24;100.00;61531.34;4903615;29;20100;-56
2023/02/03 08:19:51;;;;;;;144.88;8.40;;;;;;;-148.24;100.00;61531.34;4904592;29;20220;-55
2023/02/03 08:22:18;;;;;;;166.40;7.68;;;;;;;-148.24;100.00;61531.34;4903566;29;20051;-56
2023/02/03 08:24:45;;;;;;;100.65;7.07;;;;;;;-148.24;100.00;61531.34;4906363;29;20027;-57
2023/02/03 08:27:21;;;;;;;130.05;7.88;;;;;;;-148.24;100.00;61531.34;4903769;29;20713;-56
2023/02/03 08:29:47;;;;;;;151.63;9.38;;;;;;;-148.24;100.00;61531.34;4902210;29;20027;-56
2023/02/03 08:32:15;;;;;;;108.97;6.32;;;;;;;-148.24;100.00;61531.34;4900954;29;20040;-56
2023/02/03 08:34:40;;;;;;;141.82;6.82;;;;;;;-148.24;100.00;61531.34;4904093;29;20027;-56
2023/02/03 08:37:06;;;;;;;133.88;8.40;;;;;;;-148.24;100.00;61531.34;4902674;29;20054;-56
2023/02/03 08:39:33;;;;;;;165.05;8.02;;;;;;;-148.24;100.00;61531.34;4901980;29;20243;-57
2023/02/03 08:41:58;;;;;;;117.90;5.85;;;;;;;-148.24;100.00;61531.34;4900616;29;20518;-56
2023/02/03 08:44:24;;;;;;;137.57;7.38;;;;;;;-148.24;100.00;61531.34;4901220;29;20038;-56
2023/02/03 08:46:53;;;;;;;153.82;8.02;;;;;;;-148.24;100.00;61531.34;4900658;29;20075;-55
2023/02/03 08:49:19;;;;;;;138.40;7.88;;;;;;;-148.24;100.00;61531.34;4905938;29;20023;-54
2023/02/03 08:51:46;;;;;;;137.15;7.82;;;;;;;-148.24;100.00;61531.34;4901520;29;20068;-55
2023/02/03 08:54:12;;;;;;;137.48;6.90;;;;;;;-148.24;100.00;61531.34;4902716;29;20518;-56
2023/02/03 08:56:38;;;;;;;133.85;6.82;;;;;;;-148.24;100.00;61531.34;4901973;29;20048;-54
2023/02/03 08:59:04;;;;;;;132.57;6.45;;;;;;;-148.24;100.00;61531.34;4900912;29;20556;-55
2023/02/03 09:01:29;;;;;;;136.85;7.07;;;;;;;-148.24;100.00;61531.34;4901818;29;20136;-55
2023/02/03 09:03:55;;;;;;;161.93;7.85;;;;;;;-148.24;100.00;61531.34;4903901;29;20031;-55
2023/02/03 09:06:21;;;;;;;136.02;7.70;;;;;;;-148.24;100.00;61531.34;4902930;29;20537;-54
2023/02/03 09:08:46;;;;;;;112.75;6.55;;;;;;;-148.24;100.00;61531.34;4903228;29;20114;-55
2023/02/03 09:11:13;;;;;;;144.98;8.20;;;;;;;-148.24;100.00;61531.34;4899928;29;20234;-55
2023/02/03 09:13:42;;;;;;;108.30;7.03;;;;;;;-148.24;100.00;61531.34;4904866;29;20182;-55
2023/02/03 09:16:07;;;;;;;145.98;7.20;;;;;;;-148.24;100.00;61531.34;4902646;29;20526;-56
2023/02/03 09:18:33;;;;;;;149.38;8.50;;;;;;;-148.24;100.00;61531.34;4901429;29;20074;-55
2023/02/03 09:21:03;;;;;;;118.57;6.30;;;;;;;-148.24;100.00;61531.34;4899528;29;20044;-56
2023/02/03 09:23:28;;;;;;;142.38;8.32;;;;;;;-148.24;100.00;61531.34;4902255;29;20541;-55
2023/02/03 09:25:53;;;;;;;115.55;6.97;;;;;;;-148.24;100.00;61531.34;4898900;29;20035;-54
2023/02/03 09:28:19;;;;;;;124.63;7.47;;;;;;;-148.24;100.00;61531.34;4903057;29;20027;-55
2023/02/03 09:30:46;;;;;;;108.80;6.65;;;;;;;-148.24;100.00;61531.34;4900922;29;20899;-56
2023/02/03 09:33:11;;;;;;;128.57;9.70;;;;;;;-148.24;100.00;61531.34;4900849;29;20899;-55
2023/02/03 09:35:36;;;;;;;145.88;7.65;;;;;;;-148.24;100.00;61531.34;4901218;29;20047;-55
2023/02/03 09:38:02;;;;;;;138.35;8.38;;;;;;;-148.24;100.00;61531.34;4901552;29;20387;-55
2023/02/03 09:40:33;;;;;;;121.97;6.65;;;;;;;-148.24;100.00;61531.34;4900405;29;20103;-55
2023/02/03 09:42:59;;;;;;;128.30;6.50;;;;;;;-148.24;100.00;61531.34;4901932;29;20031;-55
2023/02/03 09:45:29;;;;;;;141.43;8.65;;;;;;;-148.24;100.00;61531.34;4903388;29;20040;-56
2023/02/03 09:48:03;;;;;;;179.43;8.43;;;;;;;-148.24;100.00;61531.34;4902447;29;20075;-55
2023/02/03 09:50:32;;;;;;;118.72;6.63;;;;;;;-148.24;100.00;61531.34;4901351;29;20542;-56
2023/02/03 09:53:07;;;;;;;148.43;8.73;;;;;;;-148.24;100.00;61531.34;4901228;29;20534;-56
2023/02/03 09:55:38;;;;;;;105.47;5.30;;;;;;;-148.24;100.00;61531.34;4901951;29;20067;-56
2023/02/03 09:58:08;;;;;;;138.30;9.25;;;;;;;-148.24;100.00;61531.34;4905074;29;20118;-56
2023/02/03 10:00:56;;;;;;;112.63;7.22;;;;;;;-148.24;100.00;61531.34;4901832;29;20560;-56
2023/02/03 10:03:34;;;;;;;111.32;6.60;;;;;;;-148.24;100.00;61531.34;4901746;29;20060;-55
2023/02/03 10:06:40;;;;;;;151.50;7.10;;;;;;;-148.24;100.00;61531.34;4902613;29;20052;-56
2023/02/03 10:09:23;;;;;;;152.25;7.50;;;;;;;-148.24;100.00;61531.34;4901464;29;20514;-56
2023/02/03 10:12:25;;;;;;;124.18;7.38;;;;;;;-148.24;100.00;61531.34;4905130;29;20134;-54
2023/02/03 10:15:04;;;;;;;130.97;7.03;;;;;;;-148.24;100.00;61531.34;4903541;29;20028;-55
2023/02/03 10:17:37;;;;;;;107.03;5.95;;;;;;;-148.24;100.00;61531.34;4903782;29;20040;-54
2023/02/03 10:20:02;;;;;;;;;;;;;;;-148.24;100.00;61531.34;4906432;29;20529;-56
2023/02/03 10:22:30;;;;;;;161.50;7.95;;;;;;;-148.24;100.00;61531.34;4903130;29;19966;-58
2023/02/03 10:25:16;;;;;;;111.60;7.05;;;;;;;-148.24;100.00;61531.34;4905649;29;20031;-56
2023/02/03 10:27:42;;;;;;;123.18;6.93;;;;;;;-148.24;100.00;61531.34;4904438;29;20046;-55
2023/02/03 10:30:18;;;;;;;132.50;6.40;;;;;;;-148.24;100.00;61531.34;4904428;29;20498;-53
2023/02/03 10:32:43;;;;;;;126.38;5.70;;;;;;;-148.24;100.00;61531.34;4905228;29;20040;-54
2023/02/03 10:35:12;;;;;;;123.97;6.07;;;;;;;-148.24;100.00;61531.34;4902484;29;20024;-55
2023/02/03 10:37:51;;;;;;;147.95;6.53;;;;;;;-148.24;100.00;61531.34;4904621;29;20854;-54
2023/02/03 10:40:16;;;;;;;131.25;6.32;;;;;;;-148.24;100.00;61531.34;4905126;29;20028;-58
2023/02/03 10:45:36;;;;;;;139.93;6.35;;;;;;;-148.24;100.00;61531.34;4903160;29;20131;-56
2023/02/03 10:48:03;;;;;;;111.18;6.57;;;;;;;-148.24;100.00;61531.34;4903806;29;20031;-55
2023/02/03 10:50:31;;;;;;;136.95;7.22;;;;;;;-148.24;100.00;61531.34;4905350;29;20058;-54
2023/02/03 10:53:25;;;;;;;148.35;6.85;;;;;;;-148.24;100.00;61531.34;4904346;29;20055;-55
2023/02/03 10:56:03;;;;;;;144.77;7.65;;;;;;;-148.24;100.00;61531.34;4903707;29;20036;-56
2023/02/03 10:58:32;;;;;;;107.93;5.18;;;;;;;-148.24;100.00;61531.34;4905229;29;20039;-55
2023/02/03 11:01:12;;;;;;;155.77;7.30;;;;;;;-148.24;100.00;61531.34;4903156;29;20036;-56
2023/02/03 11:03:44;;;;;;;113.97;5.63;;;;;;;-148.24;100.00;61531.34;4903084;29;20036;-55
2023/02/03 11:06:13;;;;;;;140.43;7.00;;;;;;;-148.24;100.00;61531.34;4906423;29;20047;-55
2023/02/03 11:08:42;;;;;;;97.95;5.00;;;;;;;-148.24;100.00;61531.34;4906337;29;20849;-55